sensor_id;sensor_type;location;lat;lon;timestamp;P1;durP1;ratioP1;P2;durP2;ratioP2
16119;SDS011;12670;53.502;10.252;2023-04-03T00:02:44;8.33;;;2.20;;
16119;SDS011;12670;53.502;10.252;2023-04-03T00:05:47;5.93;;;2.00;;
16119;SDS011;12670;53.502;10.252;2023-04-03T00:08:49;4.77;;;1.93;;
16119;SDS011;12670;53.502;10.252;2023-04-03T00:11:52;3.60;;;1.80;;
16119;SDS011;12670;53.502;10.252;2023-04-03T00:14:55;7.40;;;1.97;;
16119;SDS011;12670;53.502;10.252;2023-04-03T00:17:59;8.07;;;2.20;;
16119;SDS011;12670;53.502;10.252;2023-04-03T00:21:02;6.73;;;1.67;;
16119;SDS011;12670;53.502;10.252;2023-04-03T00:24:05;8.83;;;2.10;;
16119;SDS011;12670;53.502;10.252;2023-04-03T00:27:08;5.53;;;1.60;;
16119;SDS011;12670;53.502;10.252;2023-04-03T00:30:13;5.37;;;1.87;;
16119;SDS011;12670;53.502;10.252;2023-04-03T00:33:19;5.43;;;1.73;;
16119;SDS011;12670;53.502;10.252;2023-04-03T00:36:22;8.60;;;2.00;;
16119;SDS011;12670;53.502;10.252;2023-04-03T00:39:25;6.10;;;1.97;;
16119;SDS011;12670;53.502;10.252;2023-04-03T00:42:28;8.97;;;2.00;;
16119;SDS011;12670;53.502;10.252;2023-04-03T00:45:32;5.33;;;2.00;;
16119;SDS011;12670;53.502;10.252;2023-04-03T00:48:39;5.67;;;1.80;;
16119;SDS011;12670;53.502;10.252;2023-04-03T00:51:44;6.97;;;2.17;;
16119;SDS011;12670;53.502;10.252;2023-04-03T00:54:47;6.27;;;1.90;;
16119;SDS011;12670;53.502;10.252;2023-04-03T00:57:52;4.60;;;1.90;;
16119;SDS011;12670;53.502;10.252;2023-04-03T01:00:57;8.60;;;2.20;;
16119;SDS011;12670;53.502;10.252;2023-04-03T01:04:02;7.83;;;1.90;;
16119;SDS011;12670;53.502;10.252;2023-04-03T01:07:07;10.97;;;2.40;;
16119;SDS011;12670;53.502;10.252;2023-04-03T01:10:13;6.23;;;2.13;;
16119;SDS011;12670;53.502;10.252;2023-04-03T01:13:22;7.00;;;2.10;;
16119;SDS011;12670;53.502;10.252;2023-04-03T01:16:27;7.83;;;2.33;;
16119;SDS011;12670;53.502;10.252;2023-04-03T01:19:33;9.37;;;2.33;;
16119;SDS011;12670;53.502;10.252;2023-04-03T01:22:41;12.87;;;2.43;;
16119;SDS011;12670;53.502;10.252;2023-04-03T01:25:53;8.30;;;2.13;;
16119;SDS011;12670;53.502;10.252;2023-04-03T01:28:58;4.67;;;2.00;;
16119;SDS011;12670;53.502;10.252;2023-04-03T01:32:03;6.80;;;2.07;;
16119;SDS011;12670;53.502;10.252;2023-04-03T01:35:07;5.13;;;1.70;;
16119;SDS011;12670;53.502;10.252;2023-04-03T01:38:11;5.27;;;2.37;;
16119;SDS011;12670;53.502;10.252;2023-04-03T01:41:13;8.93;;;2.03;;
16119;SDS011;12670;53.502;10.252;2023-04-03T01:44:17;5.60;;;2.13;;
16119;SDS011;12670;53.502;10.252;2023-04-03T01:47:21;7.40;;;2.20;;
16119;SDS011;12670;53.502;10.252;2023-04-03T01:50:24;5.10;;;2.03;;
16119;SDS011;12670;53.502;10.252;2023-04-03T01:53:27;5.27;;;2.43;;
16119;SDS011;12670;53.502;10.252;2023-04-03T01:56:29;8.13;;;2.33;;
16119;SDS011;12670;53.502;10.252;2023-04-03T01:59:32;5.67;;;2.10;;
16119;SDS011;12670;53.502;10.252;2023-04-03T02:02:36;7.90;;;2.20;;
16119;SDS011;12670;53.502;10.252;2023-04-03T02:05:39;9.37;;;2.10;;
16119;SDS011;12670;53.502;10.252;2023-04-03T02:08:41;5.80;;;2.23;;
16119;SDS011;12670;53.502;10.252;2023-04-03T02:11:44;7.63;;;2.50;;
16119;SDS011;12670;53.502;10.252;2023-04-03T02:14:46;5.77;;;1.97;;
16119;SDS011;12670;53.502;10.252;2023-04-03T02:17:50;8.20;;;1.90;;
16119;SDS011;12670;53.502;10.252;2023-04-03T02:20:53;7.43;;;2.47;;
16119;SDS011;12670;53.502;10.252;2023-04-03T02:23:56;9.83;;;2.47;;
16119;SDS011;12670;53.502;10.252;2023-04-03T02:26:59;8.30;;;2.27;;
16119;SDS011;12670;53.502;10.252;2023-04-03T02:30:02;5.40;;;2.37;;
16119;SDS011;12670;53.502;10.252;2023-04-03T02:33:06;6.07;;;1.93;;
16119;SDS011;12670;53.502;10.252;2023-04-03T02:36:09;8.60;;;2.20;;
16119;SDS011;12670;53.502;10.252;2023-04-03T02:39:11;8.67;;;2.50;;
16119;SDS011;12670;53.502;10.252;2023-04-03T02:42:14;5.63;;;1.97;;
16119;SDS011;12670;53.502;10.252;2023-04-03T02:45:17;4.53;;;2.00;;
16119;SDS011;12670;53.502;10.252;2023-04-03T02:48:21;4.53;;;2.10;;
16119;SDS011;12670;53.502;10.252;2023-04-03T02:51:23;10.63;;;2.57;;
16119;SDS011;12670;53.502;10.252;2023-04-03T02:54:26;7.60;;;1.90;;
16119;SDS011;12670;53.502;10.252;2023-04-03T02:57:31;8.67;;;2.37;;
16119;SDS011;12670;53.502;10.252;2023-04-03T03:00:34;7.63;;;2.50;;
16119;SDS011;12670;53.502;10.252;2023-04-03T03:03:38;6.53;;;2.30;;
16119;SDS011;12670;53.502;10.252;2023-04-03T03:06:41;6.73;;;2.20;;
16119;SDS011;12670;53.502;10.252;2023-04-03T03:09:45;4.33;;;2.07;;
16119;SDS011;12670;53.502;10.252;2023-04-03T03:12:47;8.87;;;2.20;;
16119;SDS011;12670;53.502;10.252;2023-04-03T03:15:50;9.07;;;1.80;;
16119;SDS011;12670;53.502;10.252;2023-04-03T03:18:54;7.90;;;2.63;;
16119;SDS011;12670;53.502;10.252;2023-04-03T03:21:59;6.00;;;2.20;;
16119;SDS011;12670;53.502;10.252;2023-04-03T03:25:02;6.67;;;1.90;;
16119;SDS011;12670;53.502;10.252;2023-04-03T03:28:05;4.23;;;2.00;;
16119;SDS011;12670;53.502;10.252;2023-04-03T03:31:08;4.33;;;2.10;;
16119;SDS011;12670;53.502;10.252;2023-04-03T03:34:13;5.47;;;1.83;;
16119;SDS011;12670;53.502;10.252;2023-04-03T03:37:15;5.60;;;2.10;;
16119;SDS011;12670;53.502;10.252;2023-04-03T03:40:18;10.10;;;2.40;;
16119;SDS011;12670;53.502;10.252;2023-04-03T03:43:21;8.53;;;1.97;;
16119;SDS011;12670;53.502;10.252;2023-04-03T03:46:23;6.50;;;2.20;;
16119;SDS011;12670;53.502;10.252;2023-04-03T03:49:27;7.23;;;2.47;;
16119;SDS011;12670;53.502;10.252;2023-04-03T03:52:30;4.60;;;1.47;;
16119;SDS011;12670;53.502;10.252;2023-04-03T03:55:33;7.70;;;2.20;;
16119;SDS011;12670;53.502;10.252;2023-04-03T03:58:36;3.97;;;2.00;;
16119;SDS011;12670;53.502;10.252;2023-04-03T04:01:39;8.83;;;2.33;;
16119;SDS011;12670;53.502;10.252;2023-04-03T04:04:43;4.23;;;1.97;;
16119;SDS011;12670;53.502;10.252;2023-04-03T04:07:45;10.23;;;2.37;;
16119;SDS011;12670;53.502;10.252;2023-04-03T04:10:51;5.97;;;2.00;;
16119;SDS011;12670;53.502;10.252;2023-04-03T04:13:55;8.70;;;2.27;;
16119;SDS011;12670;53.502;10.252;2023-04-03T04:16:57;4.83;;;2.00;;
16119;SDS011;12670;53.502;10.252;2023-04-03T04:20:01;7.10;;;2.00;;
16119;SDS011;12670;53.502;10.252;2023-04-03T04:23:06;7.43;;;2.07;;
16119;SDS011;12670;53.502;10.252;2023-04-03T04:26:08;6.97;;;2.00;;
16119;SDS011;12670;53.502;10.252;2023-04-03T04:29:11;140.40;;;9.37;;
16119;SDS011;12670;53.502;10.252;2023-04-03T04:32:14;33.60;;;3.03;;
16119;SDS011;12670;53.502;10.252;2023-04-03T04:35:18;16.13;;;2.10;;
16119;SDS011;12670;53.502;10.252;2023-04-03T04:38:20;8.00;;;2.13;;
16119;SDS011;12670;53.502;10.252;2023-04-03T04:41:23;12.83;;;2.43;;
16119;SDS011;12670;53.502;10.252;2023-04-03T04:44:26;8.13;;;2.20;;
16119;SDS011;12670;53.502;10.252;2023-04-03T04:47:29;7.47;;;2.20;;
16119;SDS011;12670;53.502;10.252;2023-04-03T04:50:33;11.83;;;2.10;;
16119;SDS011;12670;53.502;10.252;2023-04-03T04:53:36;8.93;;;2.57;;
16119;SDS011;12670;53.502;10.252;2023-04-03T04:56:38;9.23;;;2.10;;
16119;SDS011;12670;53.502;10.252;2023-04-03T04:59:41;7.60;;;2.10;;
16119;SDS011;12670;53.502;10.252;2023-04-03T05:02:44;4.70;;;2.17;;
16119;SDS011;12670;53.502;10.252;2023-04-03T05:05:48;18.87;;;2.40;;
16119;SDS011;12670;53.502;10.252;2023-04-03T05:08:50;9.13;;;2.00;;
16119;SDS011;12670;53.502;10.252;2023-04-03T05:11:53;39.73;;;2.60;;
16119;SDS011;12670;53.502;10.252;2023-04-03T05:14:56;4.43;;;1.77;;
16119;SDS011;12670;53.502;10.252;2023-04-03T05:17:58;10.63;;;2.10;;
16119;SDS011;12670;53.502;10.252;2023-04-03T05:21:03;11.57;;;2.07;;
16119;SDS011;12670;53.502;10.252;2023-04-03T05:24:06;5.33;;;2.00;;
16119;SDS011;12670;53.502;10.252;2023-04-03T05:27:10;19.53;;;2.47;;
16119;SDS011;12670;53.502;10.252;2023-04-03T05:30:13;6.67;;;1.97;;
16119;SDS011;12670;53.502;10.252;2023-04-03T05:33:16;11.43;;;2.27;;
16119;SDS011;12670;53.502;10.252;2023-04-03T05:36:19;5.53;;;2.20;;
16119;SDS011;12670;53.502;10.252;2023-04-03T05:39:22;23.00;;;2.57;;
16119;SDS011;12670;53.502;10.252;2023-04-03T05:42:25;7.23;;;2.17;;
16119;SDS011;12670;53.502;10.252;2023-04-03T05:45:28;8.47;;;2.23;;
16119;SDS011;12670;53.502;10.252;2023-04-03T05:48:31;9.73;;;2.73;;
16119;SDS011;12670;53.502;10.252;2023-04-03T05:51:35;10.50;;;2.70;;
16119;SDS011;12670;53.502;10.252;2023-04-03T05:54:38;16.73;;;2.40;;
16119;SDS011;12670;53.502;10.252;2023-04-03T05:57:41;6.40;;;2.40;;
16119;SDS011;12670;53.502;10.252;2023-04-03T06:00:44;8.33;;;2.53;;
16119;SDS011;12670;53.502;10.252;2023-04-03T06:03:46;5.53;;;2.90;;
16119;SDS011;12670;53.502;10.252;2023-04-03T06:06:51;6.57;;;2.60;;
16119;SDS011;12670;53.502;10.252;2023-04-03T06:09:58;9.23;;;2.87;;
16119;SDS011;12670;53.502;10.252;2023-04-03T06:13:01;15.70;;;3.33;;
16119;SDS011;12670;53.502;10.252;2023-04-03T06:16:04;12.13;;;3.20;;
16119;SDS011;12670;53.502;10.252;2023-04-03T06:19:07;6.23;;;2.77;;
16119;SDS011;12670;53.502;10.252;2023-04-03T06:22:12;13.37;;;2.87;;
16119;SDS011;12670;53.502;10.252;2023-04-03T06:25:15;9.27;;;2.60;;
16119;SDS011;12670;53.502;10.252;2023-04-03T06:28:19;5.53;;;2.17;;
16119;SDS011;12670;53.502;10.252;2023-04-03T06:31:22;8.97;;;2.73;;
16119;SDS011;12670;53.502;10.252;2023-04-03T06:34:25;12.27;;;2.83;;
16119;SDS011;12670;53.502;10.252;2023-04-03T06:37:30;10.07;;;2.60;;
16119;SDS011;12670;53.502;10.252;2023-04-03T06:40:33;5.13;;;2.33;;
16119;SDS011;12670;53.502;10.252;2023-04-03T06:43:37;50.43;;;3.83;;
16119;SDS011;12670;53.502;10.252;2023-04-03T06:46:39;7.37;;;2.77;;
16119;SDS011;12670;53.502;10.252;2023-04-03T06:49:42;7.03;;;2.37;;
16119;SDS011;12670;53.502;10.252;2023-04-03T06:52:47;5.10;;;2.20;;
16119;SDS011;12670;53.502;10.252;2023-04-03T06:55:49;10.23;;;2.10;;
16119;SDS011;12670;53.502;10.252;2023-04-03T06:58:52;9.07;;;2.30;;
16119;SDS011;12670;53.502;10.252;2023-04-03T07:01:55;9.33;;;3.03;;
16119;SDS011;12670;53.502;10.252;2023-04-03T07:04:59;22.47;;;6.93;;
16119;SDS011;12670;53.502;10.252;2023-04-03T07:08:04;15.10;;;4.50;;
16119;SDS011;12670;53.502;10.252;2023-04-03T07:11:07;9.50;;;4.07;;
16119;SDS011;12670;53.502;10.252;2023-04-03T07:14:11;17.60;;;8.00;;
16119;SDS011;12670;53.502;10.252;2023-04-03T07:17:13;21.70;;;8.00;;
16119;SDS011;12670;53.502;10.252;2023-04-03T07:20:16;27.43;;;11.40;;
16119;SDS011;12670;53.502;10.252;2023-04-03T07:23:20;27.10;;;10.37;;
16119;SDS011;12670;53.502;10.252;2023-04-03T07:26:23;10.23;;;4.30;;
16119;SDS011;12670;53.502;10.252;2023-04-03T07:29:26;10.70;;;2.17;;
16119;SDS011;12670;53.502;10.252;2023-04-03T07:32:29;6.10;;;1.67;;
16119;SDS011;12670;53.502;10.252;2023-04-03T07:35:32;7.63;;;1.80;;
16119;SDS011;12670;53.502;10.252;2023-04-03T07:38:36;4.83;;;2.10;;
16119;SDS011;12670;53.502;10.252;2023-04-03T07:41:39;10.17;;;1.93;;
16119;SDS011;12670;53.502;10.252;2023-04-03T07:44:42;9.87;;;1.73;;
16119;SDS011;12670;53.502;10.252;2023-04-03T07:47:44;5.40;;;1.40;;
16119;SDS011;12670;53.502;10.252;2023-04-03T07:50:48;5.27;;;1.47;;
16119;SDS011;12670;53.502;10.252;2023-04-03T07:53:52;6.50;;;1.50;;
16119;SDS011;12670;53.502;10.252;2023-04-03T07:56:55;2.87;;;1.20;;
16119;SDS011;12670;53.502;10.252;2023-04-03T07:59:58;4.03;;;1.53;;
16119;SDS011;12670;53.502;10.252;2023-04-03T08:03:01;5.57;;;1.87;;
16119;SDS011;12670;53.502;10.252;2023-04-03T08:06:04;4.47;;;1.40;;
16119;SDS011;12670;53.502;10.252;2023-04-03T08:09:17;4.57;;;1.30;;
16119;SDS011;12670;53.502;10.252;2023-04-03T08:12:19;4.07;;;1.37;;
16119;SDS011;12670;53.502;10.252;2023-04-03T08:15:22;5.13;;;1.53;;
16119;SDS011;12670;53.502;10.252;2023-04-03T08:18:25;5.37;;;1.30;;
16119;SDS011;12670;53.502;10.252;2023-04-03T08:21:28;3.33;;;1.53;;
16119;SDS011;12670;53.502;10.252;2023-04-03T08:24:32;4.23;;;1.10;;
16119;SDS011;12670;53.502;10.252;2023-04-03T08:27:37;3.60;;;1.20;;
16119;SDS011;12670;53.502;10.252;2023-04-03T08:30:40;2.83;;;1.10;;
16119;SDS011;12670;53.502;10.252;2023-04-03T08:33:44;5.53;;;1.57;;
16119;SDS011;12670;53.502;10.252;2023-04-03T08:36:47;2.60;;;1.40;;
16119;SDS011;12670;53.502;10.252;2023-04-03T08:39:51;8.03;;;1.90;;
16119;SDS011;12670;53.502;10.252;2023-04-03T08:42:58;1.97;;;0.90;;
16119;SDS011;12670;53.502;10.252;2023-04-03T08:46:21;2.47;;;0.90;;
16119;SDS011;12670;53.502;10.252;2023-04-03T08:49:29;3.33;;;1.00;;
16119;SDS011;12670;53.502;10.252;2023-04-03T08:52:36;3.00;;;0.90;;
16119;SDS011;12670;53.502;10.252;2023-04-03T08:55:45;5.10;;;0.90;;
16119;SDS011;12670;53.502;10.252;2023-04-03T08:58:49;4.13;;;1.10;;
16119;SDS011;12670;53.502;10.252;2023-04-03T09:01:56;1.93;;;0.93;;
16119;SDS011;12670;53.502;10.252;2023-04-03T09:05:01;2.73;;;1.00;;
16119;SDS011;12670;53.502;10.252;2023-04-03T09:08:05;1.77;;;0.97;;
16119;SDS011;12670;53.502;10.252;2023-04-03T09:11:16;6.40;;;1.17;;
16119;SDS011;12670;53.502;10.252;2023-04-03T09:14:26;2.83;;;0.90;;
16119;SDS011;12670;53.502;10.252;2023-04-03T09:17:37;5.43;;;1.00;;
16119;SDS011;12670;53.502;10.252;2023-04-03T09:20:46;3.57;;;1.00;;
16119;SDS011;12670;53.502;10.252;2023-04-03T09:23:57;1.90;;;0.90;;
16119;SDS011;12670;53.502;10.252;2023-04-03T09:27:03;18.57;;;2.40;;
16119;SDS011;12670;53.502;10.252;2023-04-03T09:30:12;2.80;;;0.93;;
16119;SDS011;12670;53.502;10.252;2023-04-03T09:33:17;3.30;;;1.10;;
16119;SDS011;12670;53.502;10.252;2023-04-03T09:36:39;2.90;;;0.90;;
16119;SDS011;12670;53.502;10.252;2023-04-03T09:39:52;4.27;;;0.90;;
16119;SDS011;12670;53.502;10.252;2023-04-03T09:42:59;2.33;;;0.90;;
16119;SDS011;12670;53.502;10.252;2023-04-03T09:46:16;2.20;;;1.10;;
16119;SDS011;12670;53.502;10.252;2023-04-03T09:49:25;6.47;;;1.30;;
16119;SDS011;12670;53.502;10.252;2023-04-03T09:52:28;3.30;;;1.10;;
16119;SDS011;12670;53.502;10.252;2023-04-03T09:55:32;3.70;;;0.93;;
16119;SDS011;12670;53.502;10.252;2023-04-03T09:58:45;2.00;;;1.00;;
16119;SDS011;12670;53.502;10.252;2023-04-03T10:01:58;1.97;;;0.73;;
16119;SDS011;12670;53.502;10.252;2023-04-03T10:05:02;5.50;;;1.10;;
16119;SDS011;12670;53.502;10.252;2023-04-03T10:08:15;2.33;;;0.90;;
16119;SDS011;12670;53.502;10.252;2023-04-03T10:11:25;4.07;;;1.10;;
16119;SDS011;12670;53.502;10.252;2023-04-03T10:14:29;3.47;;;0.97;;
16119;SDS011;12670;53.502;10.252;2023-04-03T10:17:35;5.83;;;1.30;;
16119;SDS011;12670;53.502;10.252;2023-04-03T10:20:48;6.27;;;1.23;;
16119;SDS011;12670;53.502;10.252;2023-04-03T10:23:54;2.97;;;1.47;;
16119;SDS011;12670;53.502;10.252;2023-04-03T10:27:09;4.27;;;1.40;;
16119;SDS011;12670;53.502;10.252;2023-04-03T10:30:25;6.87;;;1.10;;
16119;SDS011;12670;53.502;10.252;2023-04-03T10:33:47;4.03;;;1.23;;
16119;SDS011;12670;53.502;10.252;2023-04-03T10:37:00;4.70;;;1.37;;
16119;SDS011;12670;53.502;10.252;2023-04-03T10:40:13;4.50;;;1.10;;
16119;SDS011;12670;53.502;10.252;2023-04-03T10:43:23;4.83;;;1.20;;
16119;SDS011;12670;53.502;10.252;2023-04-03T10:46:36;4.17;;;1.20;;
16119;SDS011;12670;53.502;10.252;2023-04-03T10:49:43;2.93;;;1.00;;
16119;SDS011;12670;53.502;10.252;2023-04-03T10:53:01;3.23;;;1.00;;
16119;SDS011;12670;53.502;10.252;2023-04-03T10:56:11;44.77;;;4.50;;
16119;SDS011;12670;53.502;10.252;2023-04-03T10:59:22;12.30;;;1.67;;
16119;SDS011;12670;53.502;10.252;2023-04-03T11:02:32;5.73;;;1.27;;
16119;SDS011;12670;53.502;10.252;2023-04-03T11:05:40;3.87;;;0.93;;
16119;SDS011;12670;53.502;10.252;2023-04-03T11:08:48;2.00;;;0.73;;
16119;SDS011;12670;53.502;10.252;2023-04-03T11:12:00;2.13;;;0.93;;
16119;SDS011;12670;53.502;10.252;2023-04-03T11:15:11;4.67;;;1.23;;
16119;SDS011;12670;53.502;10.252;2023-04-03T11:18:19;3.27;;;0.93;;
16119;SDS011;12670;53.502;10.252;2023-04-03T11:21:26;6.70;;;0.90;;
16119;SDS011;12670;53.502;10.252;2023-04-03T11:24:32;1.90;;;0.80;;
16119;SDS011;12670;53.502;10.252;2023-04-03T11:27:37;9.77;;;1.50;;
16119;SDS011;12670;53.502;10.252;2023-04-03T11:30:46;2.73;;;1.13;;
16119;SDS011;12670;53.502;10.252;2023-04-03T11:33:58;3.30;;;0.97;;
16119;SDS011;12670;53.502;10.252;2023-04-03T11:37:13;3.97;;;1.37;;
16119;SDS011;12670;53.502;10.252;2023-04-03T11:40:24;2.80;;;1.00;;
16119;SDS011;12670;53.502;10.252;2023-04-03T11:43:31;3.73;;;1.00;;
16119;SDS011;12670;53.502;10.252;2023-04-03T11:46:51;5.20;;;1.20;;
16119;SDS011;12670;53.502;10.252;2023-04-03T11:50:00;1.97;;;0.97;;
16119;SDS011;12670;53.502;10.252;2023-04-03T11:53:24;4.30;;;1.10;;
16119;SDS011;12670;53.502;10.252;2023-04-03T11:56:37;2.03;;;0.93;;
16119;SDS011;12670;53.502;10.252;2023-04-03T11:59:39;5.40;;;1.10;;
16119;SDS011;12670;53.502;10.252;2023-04-03T12:02:43;4.17;;;1.20;;
16119;SDS011;12670;53.502;10.252;2023-04-03T12:05:56;56.50;;;4.40;;
16119;SDS011;12670;53.502;10.252;2023-04-03T12:09:23;2.63;;;0.90;;
16119;SDS011;12670;53.502;10.252;2023-04-03T12:12:35;2.60;;;0.93;;
16119;SDS011;12670;53.502;10.252;2023-04-03T12:15:50;4.43;;;1.10;;
16119;SDS011;12670;53.502;10.252;2023-04-03T12:18:59;2.17;;;1.03;;
16119;SDS011;12670;53.502;10.252;2023-04-03T12:22:13;4.90;;;1.10;;
16119;SDS011;12670;53.502;10.252;2023-04-03T12:28:51;2.73;;;1.00;;
16119;SDS011;12670;53.502;10.252;2023-04-03T12:31:58;3.00;;;1.03;;
16119;SDS011;12670;53.502;10.252;2023-04-03T12:35:17;5.80;;;1.20;;
16119;SDS011;12670;53.502;10.252;2023-04-03T12:38:44;2.87;;;0.90;;
16119;SDS011;12670;53.502;10.252;2023-04-03T12:42:08;2.60;;;0.90;;
16119;SDS011;12670;53.502;10.252;2023-04-03T12:45:27;3.37;;;0.87;;
16119;SDS011;12670;53.502;10.252;2023-04-03T12:48:31;2.27;;;0.80;;
16119;SDS011;12670;53.502;10.252;2023-04-03T12:51:37;6.83;;;1.33;;
16119;SDS011;12670;53.502;10.252;2023-04-03T12:54:43;3.50;;;1.00;;
16119;SDS011;12670;53.502;10.252;2023-04-03T12:57:48;2.07;;;1.03;;
16119;SDS011;12670;53.502;10.252;2023-04-03T13:01:01;2.80;;;1.00;;
16119;SDS011;12670;53.502;10.252;2023-04-03T13:04:05;4.43;;;1.27;;
16119;SDS011;12670;53.502;10.252;2023-04-03T13:07:18;5.20;;;0.90;;
16119;SDS011;12670;53.502;10.252;2023-04-03T13:10:23;2.37;;;0.87;;
16119;SDS011;12670;53.502;10.252;2023-04-03T13:13:26;2.77;;;1.10;;
16119;SDS011;12670;53.502;10.252;2023-04-03T13:16:29;1.20;;;0.70;;
16119;SDS011;12670;53.502;10.252;2023-04-03T13:19:32;4.57;;;1.00;;
16119;SDS011;12670;53.502;10.252;2023-04-03T13:22:35;11.33;;;2.20;;
16119;SDS011;12670;53.502;10.252;2023-04-03T13:25:46;1.13;;;0.70;;
16119;SDS011;12670;53.502;10.252;2023-04-03T13:28:50;5.27;;;1.20;;
16119;SDS011;12670;53.502;10.252;2023-04-03T13:31:54;3.13;;;0.93;;
16119;SDS011;12670;53.502;10.252;2023-04-03T13:34:59;3.57;;;0.90;;
16119;SDS011;12670;53.502;10.252;2023-04-03T13:38:22;5.30;;;1.00;;
16119;SDS011;12670;53.502;10.252;2023-04-03T13:41:30;1.80;;;0.80;;
16119;SDS011;12670;53.502;10.252;2023-04-03T13:44:35;2.30;;;1.00;;
16119;SDS011;12670;53.502;10.252;2023-04-03T13:47:41;6.07;;;1.20;;
16119;SDS011;12670;53.502;10.252;2023-04-03T13:54:20;2.80;;;0.80;;
16119;SDS011;12670;53.502;10.252;2023-04-03T13:57:25;2.60;;;0.90;;
16119;SDS011;12670;53.502;10.252;2023-04-03T14:00:35;3.83;;;1.17;;
16119;SDS011;12670;53.502;10.252;2023-04-03T14:03:42;6.47;;;1.10;;
16119;SDS011;12670;53.502;10.252;2023-04-03T14:06:48;3.17;;;1.00;;
16119;SDS011;12670;53.502;10.252;2023-04-03T14:09:52;3.83;;;1.20;;
16119;SDS011;12670;53.502;10.252;2023-04-03T14:12:57;2.40;;;1.20;;
16119;SDS011;12670;53.502;10.252;2023-04-03T14:16:00;3.37;;;1.03;;
16119;SDS011;12670;53.502;10.252;2023-04-03T14:19:21;5.37;;;1.27;;
16119;SDS011;12670;53.502;10.252;2023-04-03T14:22:26;2.90;;;1.10;;
16119;SDS011;12670;53.502;10.252;2023-04-03T14:25:30;4.23;;;1.00;;
16119;SDS011;12670;53.502;10.252;2023-04-03T14:28:34;4.27;;;1.07;;
16119;SDS011;12670;53.502;10.252;2023-04-03T14:31:37;2.40;;;0.90;;
16119;SDS011;12670;53.502;10.252;2023-04-03T14:34:40;2.23;;;1.03;;
16119;SDS011;12670;53.502;10.252;2023-04-03T14:37:44;2.50;;;1.00;;
16119;SDS011;12670;53.502;10.252;2023-04-03T14:40:47;6.27;;;1.17;;
16119;SDS011;12670;53.502;10.252;2023-04-03T14:43:52;3.90;;;1.17;;
16119;SDS011;12670;53.502;10.252;2023-04-03T14:46:56;1.97;;;1.10;;
16119;SDS011;12670;53.502;10.252;2023-04-03T14:49:58;2.30;;;1.00;;
16119;SDS011;12670;53.502;10.252;2023-04-03T14:53:02;2.70;;;1.20;;
16119;SDS011;12670;53.502;10.252;2023-04-03T14:56:10;1.97;;;0.90;;
16119;SDS011;12670;53.502;10.252;2023-04-03T14:59:15;2.20;;;0.87;;
16119;SDS011;12670;53.502;10.252;2023-04-03T15:02:24;3.43;;;1.10;;
16119;SDS011;12670;53.502;10.252;2023-04-03T15:05:29;4.27;;;1.00;;
16119;SDS011;12670;53.502;10.252;2023-04-03T15:08:32;3.70;;;1.17;;
16119;SDS011;12670;53.502;10.252;2023-04-03T15:11:34;2.33;;;1.10;;
16119;SDS011;12670;53.502;10.252;2023-04-03T15:14:38;4.23;;;1.40;;
16119;SDS011;12670;53.502;10.252;2023-04-03T15:17:54;7.40;;;3.40;;
16119;SDS011;12670;53.502;10.252;2023-04-03T15:20:59;2.20;;;1.20;;
16119;SDS011;12670;53.502;10.252;2023-04-03T15:24:02;4.33;;;1.27;;
16119;SDS011;12670;53.502;10.252;2023-04-03T15:27:04;5.13;;;1.40;;
16119;SDS011;12670;53.502;10.252;2023-04-03T15:30:11;2.87;;;1.10;;
16119;SDS011;12670;53.502;10.252;2023-04-03T15:33:16;2.80;;;1.30;;
16119;SDS011;12670;53.502;10.252;2023-04-03T15:36:19;5.40;;;1.27;;
16119;SDS011;12670;53.502;10.252;2023-04-03T15:39:34;3.30;;;0.97;;
16119;SDS011;12670;53.502;10.252;2023-04-03T15:42:37;5.30;;;1.30;;
16119;SDS011;12670;53.502;10.252;2023-04-03T15:45:42;3.73;;;1.20;;
16119;SDS011;12670;53.502;10.252;2023-04-03T15:48:46;5.80;;;1.33;;
16119;SDS011;12670;53.502;10.252;2023-04-03T15:51:50;3.97;;;1.00;;
16119;SDS011;12670;53.502;10.252;2023-04-03T15:54:53;3.97;;;1.20;;
16119;SDS011;12670;53.502;10.252;2023-04-03T15:57:55;1.90;;;1.10;;
16119;SDS011;12670;53.502;10.252;2023-04-03T16:01:00;4.33;;;1.10;;
16119;SDS011;12670;53.502;10.252;2023-04-03T16:04:03;3.27;;;0.97;;
16119;SDS011;12670;53.502;10.252;2023-04-03T16:07:07;3.67;;;1.10;;
16119;SDS011;12670;53.502;10.252;2023-04-03T16:10:10;3.87;;;1.20;;
16119;SDS011;12670;53.502;10.252;2023-04-03T16:13:14;4.80;;;1.50;;
16119;SDS011;12670;53.502;10.252;2023-04-03T16:16:18;3.20;;;1.30;;
16119;SDS011;12670;53.502;10.252;2023-04-03T16:19:21;3.57;;;1.20;;
16119;SDS011;12670;53.502;10.252;2023-04-03T16:22:27;2.00;;;1.00;;
16119;SDS011;12670;53.502;10.252;2023-04-03T16:25:30;2.93;;;1.20;;
16119;SDS011;12670;53.502;10.252;2023-04-03T16:28:33;4.10;;;1.30;;
16119;SDS011;12670;53.502;10.252;2023-04-03T16:31:37;6.50;;;1.50;;
16119;SDS011;12670;53.502;10.252;2023-04-03T16:34:40;7.47;;;1.67;;
16119;SDS011;12670;53.502;10.252;2023-04-03T16:37:44;4.53;;;1.37;;
16119;SDS011;12670;53.502;10.252;2023-04-03T16:40:46;3.73;;;1.33;;
16119;SDS011;12670;53.502;10.252;2023-04-03T16:43:49;2.60;;;1.33;;
16119;SDS011;12670;53.502;10.252;2023-04-03T16:46:53;5.47;;;1.60;;
16119;SDS011;12670;53.502;10.252;2023-04-03T16:49:56;4.27;;;1.33;;
16119;SDS011;12670;53.502;10.252;2023-04-03T16:52:59;4.37;;;1.27;;
16119;SDS011;12670;53.502;10.252;2023-04-03T16:56:04;7.63;;;1.30;;
16119;SDS011;12670;53.502;10.252;2023-04-03T16:59:06;6.43;;;1.20;;
16119;SDS011;12670;53.502;10.252;2023-04-03T17:02:10;5.10;;;1.30;;
16119;SDS011;12670;53.502;10.252;2023-04-03T17:05:13;4.93;;;1.27;;
16119;SDS011;12670;53.502;10.252;2023-04-03T17:08:16;6.03;;;1.40;;
16119;SDS011;12670;53.502;10.252;2023-04-03T17:11:20;7.37;;;1.40;;
16119;SDS011;12670;53.502;10.252;2023-04-03T17:14:22;4.17;;;1.50;;
16119;SDS011;12670;53.502;10.252;2023-04-03T17:17:26;3.10;;;1.30;;
16119;SDS011;12670;53.502;10.252;2023-04-03T17:20:29;6.87;;;1.50;;
16119;SDS011;12670;53.502;10.252;2023-04-03T17:23:34;4.27;;;1.47;;
16119;SDS011;12670;53.502;10.252;2023-04-03T17:26:38;7.50;;;1.30;;
16119;SDS011;12670;53.502;10.252;2023-04-03T17:29:42;2.03;;;1.13;;
16119;SDS011;12670;53.502;10.252;2023-04-03T17:32:46;6.67;;;1.40;;
16119;SDS011;12670;53.502;10.252;2023-04-03T17:35:48;5.53;;;1.23;;
16119;SDS011;12670;53.502;10.252;2023-04-03T17:38:51;4.90;;;1.65;;
16119;SDS011;12670;53.502;10.252;2023-04-03T17:41:53;4.70;;;1.40;;
16119;SDS011;12670;53.502;10.252;2023-04-03T17:44:56;5.13;;;1.60;;
16119;SDS011;12670;53.502;10.252;2023-04-03T17:48:02;6.47;;;1.67;;
16119;SDS011;12670;53.502;10.252;2023-04-03T17:51:06;6.90;;;1.40;;
16119;SDS011;12670;53.502;10.252;2023-04-03T17:54:09;8.10;;;1.50;;
16119;SDS011;12670;53.502;10.252;2023-04-03T17:57:12;7.53;;;1.47;;
16119;SDS011;12670;53.502;10.252;2023-04-03T18:00:15;4.00;;;1.50;;
16119;SDS011;12670;53.502;10.252;2023-04-03T18:03:20;3.50;;;1.23;;
16119;SDS011;12670;53.502;10.252;2023-04-03T18:06:24;5.87;;;1.37;;
16119;SDS011;12670;53.502;10.252;2023-04-03T18:09:30;2.40;;;1.20;;
16119;SDS011;12670;53.502;10.252;2023-04-03T18:12:34;7.07;;;1.83;;
16119;SDS011;12670;53.502;10.252;2023-04-03T18:15:37;6.00;;;1.63;;
16119;SDS011;12670;53.502;10.252;2023-04-03T18:18:47;3.57;;;1.73;;
16119;SDS011;12670;53.502;10.252;2023-04-03T18:22:03;2.83;;;1.40;;
16119;SDS011;12670;53.502;10.252;2023-04-03T18:25:09;2.70;;;1.60;;
16119;SDS011;12670;53.502;10.252;2023-04-03T18:28:14;3.27;;;1.60;;